createdAt,value
2022-08-22T00:01:39.079Z,80.86
2022-08-22T00:03:07.258Z,63.13
2022-08-22T00:04:26.403Z,81.23
2022-08-22T00:06:58.793Z,81.75
2022-08-22T00:09:40.899Z,82.11
2022-08-22T00:12:34.478Z,82.66
2022-08-22T00:15:45.127Z,83.04
2022-08-22T00:18:22.370Z,83.21
2022-08-22T00:21:12.263Z,83.66
2022-08-22T00:23:41.319Z,83.54
2022-08-22T00:26:31.467Z,82.92
2022-08-22T00:29:09.437Z,82.77
2022-08-22T00:31:40.805Z,82.90
2022-08-22T00:34:13.722Z,83.15
2022-08-22T00:37:01.674Z,82.93
2022-08-22T00:39:35.426Z,82.81
2022-08-22T00:42:10.557Z,82.08
2022-08-22T00:45:01.699Z,81.69
2022-08-22T00:47:58.246Z,82.31
2022-08-22T00:50:35.299Z,82.69
2022-08-22T00:53:13.619Z,82.77
2022-08-22T00:55:54.282Z,82.68
2022-08-22T00:59:17.985Z,82.88
2022-08-22T01:02:15.275Z,83.23
2022-08-22T01:05:09.912Z,83.91
2022-08-22T01:08:07.433Z,84.27
2022-08-22T01:11:11.416Z,82.96
2022-08-22T01:14:34.990Z,81.68
2022-08-22T01:17:36.629Z,81.67
2022-08-22T01:20:31.496Z,81.05
2022-08-22T01:23:46.435Z,81.83
2022-08-22T01:27:03.822Z,82.68
2022-08-22T01:29:51.687Z,82.90
2022-08-22T01:32:34.551Z,83.31
2022-08-22T01:35:24.825Z,83.62
2022-08-22T01:38:06.133Z,84.02
2022-08-22T01:40:59.961Z,84.67
2022-08-22T01:44:00.623Z,85.29
2022-08-22T01:46:58.504Z,86.11
2022-08-22T01:49:38.570Z,86.56
2022-08-22T01:52:20.814Z,86.61
2022-08-22T01:55:03.015Z,86.48
2022-08-22T01:57:29.643Z,86.40
2022-08-22T02:00:01.344Z,86.80
2022-08-22T02:02:39.794Z,86.75
2022-08-22T02:05:21.987Z,86.98
2022-08-22T02:08:25.990Z,86.98
2022-08-22T02:11:05.295Z,87.33
2022-08-22T02:13:56.011Z,87.39
2022-08-22T02:16:38.239Z,87.63
2022-08-22T02:19:13.687Z,87.91
2022-08-22T02:21:46.143Z,87.56
2022-08-22T02:24:33.717Z,87.56
2022-08-22T02:27:07.945Z,87.79
2022-08-22T02:29:38.563Z,87.83
2022-08-22T02:32:25.050Z,88.20
2022-08-22T02:35:09.970Z,88.42
2022-08-22T02:37:55.303Z,88.42
2022-08-22T02:40:44.247Z,88.89
2022-08-22T02:43:35.662Z,89.05
2022-08-22T02:46:40.716Z,89.17
2022-08-22T02:49:36.095Z,89.09
2022-08-22T02:52:39.314Z,89.28
2022-08-22T02:55:15.479Z,89.08
2022-08-22T02:58:04.302Z,87.27
2022-08-22T03:00:44.050Z,86.81
2022-08-22T03:03:16.495Z,87.31
2022-08-22T03:06:00.514Z,88.13
2022-08-22T03:08:42.917Z,89.03
2022-08-22T03:11:26.459Z,88.67
2022-08-22T03:14:28.482Z,88.46
2022-08-22T03:17:08.079Z,88.95
2022-08-22T03:19:53.106Z,89.49
2022-08-22T03:22:29.727Z,89.96
2022-08-22T03:25:20.808Z,90.59
2022-08-22T03:28:14.176Z,90.64
2022-08-22T03:30:44.799Z,90.57
2022-08-22T03:33:23.457Z,90.08
2022-08-22T03:36:00.087Z,90.13
2022-08-22T03:38:26.370Z,89.86
2022-08-22T03:41:15.047Z,89.91
2022-08-22T03:43:59.939Z,89.61
2022-08-22T03:46:50.237Z,89.41
2022-08-22T03:49:59.243Z,89.65
2022-08-22T03:53:18.753Z,89.12
2022-08-22T03:55:45.522Z,89.15
2022-08-22T03:58:35.571Z,89.08
2022-08-22T04:01:20.076Z,89.06
2022-08-22T04:04:11.185Z,89.18
2022-08-22T04:06:56.518Z,89.57
2022-08-22T04:09:53.414Z,89.69
2022-08-22T04:12:29.574Z,89.85
2022-08-22T04:15:17.175Z,89.58
2022-08-22T04:17:43.488Z,89.95
2022-08-22T04:20:24.663Z,90.21
2022-08-22T04:23:09.847Z,90.03
2022-08-22T04:25:40.359Z,90.21
2022-08-22T04:28:45.300Z,90.21
2022-08-22T04:31:14.534Z,90.24
2022-08-22T04:33:50.474Z,90.05
2022-08-22T04:36:25.623Z,90.13
2022-08-22T04:39:04.979Z,90.06
2022-08-22T04:42:11.090Z,89.96
2022-08-22T04:44:53.607Z,89.18
2022-08-22T04:47:30.481Z,88.93
2022-08-22T04:50:07.410Z,88.50
2022-08-22T04:52:46.331Z,88.24
2022-08-22T04:55:31.498Z,88.32
2022-08-22T04:58:29.712Z,89.00
2022-08-22T05:01:14.883Z,89.23
2022-08-22T05:03:47.687Z,89.35
2022-08-22T05:06:17.110Z,88.98
2022-08-22T05:08:45.702Z,88.66
2022-08-22T05:11:19.722Z,88.61
2022-08-22T05:13:54.855Z,88.28
2022-08-22T05:16:25.971Z,88.06
2022-08-22T05:19:01.724Z,87.50
2022-08-22T05:21:35.168Z,86.91
2022-08-22T05:24:09.386Z,86.81
2022-08-22T05:26:42.535Z,87.05
2022-08-22T05:29:13.408Z,86.74
2022-08-22T05:31:48.741Z,86.06
2022-08-22T05:34:22.201Z,85.38
2022-08-22T05:37:02.785Z,84.97
2022-08-22T05:39:29.466Z,84.33
2022-08-22T05:42:00.410Z,83.54
2022-08-22T05:44:34.435Z,82.77
2022-08-22T05:47:06.267Z,82.53
2022-08-22T05:49:40.103Z,82.23
2022-08-22T05:52:22.577Z,81.42
2022-08-22T05:55:09.728Z,79.81
2022-08-22T05:57:41.019Z,76.66
2022-08-22T06:00:14.685Z,71.41
2022-08-22T06:03:09.242Z,69.86
2022-08-22T06:05:40.916Z,67.12
2022-08-22T06:08:19.668Z,64.21
2022-08-22T06:10:51.139Z,61.97
2022-08-22T06:13:41.163Z,59.54
2022-08-22T06:16:22.593Z,57.96
2022-08-22T06:18:50.947Z,56.40
2022-08-22T06:21:22.222Z,55.73
2022-08-22T06:23:53.657Z,54.14
2022-08-22T06:26:21.487Z,52.92
2022-08-22T06:28:54.734Z,53.61
2022-08-22T06:31:33.046Z,52.91
2022-08-22T06:34:08.121Z,54.86
2022-08-22T06:36:38.889Z,56.62
2022-08-22T06:39:21.968Z,57.63
2022-08-22T06:41:56.792Z,59.42
2022-08-22T06:44:28.013Z,61.69
2022-08-22T06:46:59.175Z,63.14
2022-08-22T06:49:26.926Z,63.37
2022-08-22T06:51:59.783Z,65.48
2022-08-22T06:54:34.176Z,64.62
2022-08-22T06:57:03.435Z,64.52
2022-08-22T06:59:33.263Z,64.59
2022-08-22T07:02:08.137Z,65.40
2022-08-22T07:04:34.767Z,64.44
2022-08-22T07:07:01.926Z,63.50
2022-08-22T07:09:28.211Z,63.30
2022-08-22T07:11:57.382Z,63.74
2022-08-22T07:14:46.628Z,65.57
2022-08-22T07:17:20.769Z,65.31
2022-08-22T07:20:05.584Z,64.26
2022-08-22T07:22:34.858Z,63.45
2022-08-22T07:25:19.631Z,62.25
2022-08-22T07:28:19.939Z,62.78
2022-08-22T07:31:02.245Z,62.60
2022-08-22T07:33:41.098Z,62.41
2022-08-22T07:36:39.820Z,62.13
2022-08-22T07:39:21.455Z,62.49
2022-08-22T07:41:47.862Z,61.39
2022-08-22T07:44:22.599Z,62.49
2022-08-22T07:47:26.353Z,63.47
2022-08-22T07:49:59.981Z,63.16
2022-08-22T07:52:35.849Z,62.92
2022-08-22T07:55:18.263Z,61.72
2022-08-22T07:57:49.422Z,59.84
2022-08-22T08:00:19.477Z,58.39
2022-08-22T08:02:52.687Z,58.09
2022-08-22T08:05:22.839Z,58.94
2022-08-22T08:07:53.263Z,58.69
2022-08-22T08:10:25.830Z,56.36
2022-08-22T08:13:02.584Z,56.50
2022-08-22T08:15:31.720Z,57.48
2022-08-22T08:18:04.971Z,56.79
2022-08-22T08:20:34.916Z,55.32
2022-08-22T08:23:01.947Z,56.74
2022-08-22T08:25:31.211Z,57.05
2022-08-22T08:27:59.645Z,55.73
2022-08-22T08:30:43.945Z,55.60
2022-08-22T08:33:25.594Z,55.95
2022-08-22T08:36:18.386Z,56.27
2022-08-22T08:38:57.163Z,54.65
2022-08-22T08:42:02.953Z,54.25
2022-08-22T08:44:41.581Z,54.07
2022-08-22T08:47:23.987Z,53.10
2022-08-22T08:50:22.483Z,51.66
2022-08-22T08:53:24.468Z,52.11
2022-08-22T08:56:20.033Z,51.07
2022-08-22T08:59:10.362Z,49.86
2022-08-22T09:02:01.290Z,49.91
2022-08-22T09:05:05.471Z,49.29
2022-08-22T09:07:54.646Z,47.99
2022-08-22T09:10:33.822Z,46.17
2022-08-22T09:13:12.135Z,46.45
2022-08-22T09:16:05.055Z,45.25
2022-08-22T09:18:53.646Z,44.70
2022-08-22T09:21:50.631Z,45.49
2022-08-22T09:24:42.178Z,46.43
2022-08-22T09:27:17.874Z,45.23
2022-08-22T09:29:54.897Z,43.07
2022-08-22T09:32:51.179Z,43.11
2022-08-22T09:35:31.277Z,42.80
2022-08-22T09:38:02.324Z,43.67
2022-08-22T09:40:45.999Z,43.96
2022-08-22T09:43:23.103Z,41.68
2022-08-22T09:46:21.469Z,39.82
2022-08-22T09:48:56.051Z,39.06
2022-08-22T09:51:32.471Z,41.97
2022-08-22T09:54:15.037Z,41.51
2022-08-22T09:57:07.498Z,41.29
2022-08-22T09:59:40.980Z,40.78
2022-08-22T10:02:31.505Z,38.65
2022-08-22T10:05:08.747Z,38.28
2022-08-22T10:07:54.729Z,37.30
2022-08-22T10:10:48.266Z,37.00
2022-08-22T10:13:34.156Z,38.51
2022-08-22T10:16:21.154Z,38.77
2022-08-22T10:19:00.540Z,38.61
2022-08-22T10:21:42.309Z,37.15
2022-08-22T10:24:43.737Z,37.42
2022-08-22T10:27:20.501Z,34.85
2022-08-22T10:30:10.238Z,34.79
2022-08-22T10:33:13.915Z,36.60
2022-08-22T10:35:43.425Z,35.91
2022-08-22T10:38:27.359Z,36.07
2022-08-22T10:41:08.830Z,36.12
2022-08-22T10:44:01.305Z,34.38
2022-08-22T10:46:59.476Z,34.19
2022-08-22T10:49:33.425Z,33.58
2022-08-22T10:52:16.761Z,34.02
2022-08-22T10:54:51.137Z,33.59
2022-08-22T10:57:26.958Z,33.24
2022-08-22T11:00:05.782Z,33.55
2022-08-22T11:02:53.998Z,32.92
2022-08-22T11:05:31.614Z,33.09
2022-08-22T11:08:16.300Z,32.22
2022-08-22T11:11:07.593Z,33.50
2022-08-22T11:13:43.320Z,32.75
2022-08-22T11:16:24.190Z,30.96
2022-08-22T11:19:25.082Z,31.15
2022-08-22T11:22:10.043Z,34.05
2022-08-22T11:25:29.176Z,33.80
2022-08-22T11:28:19.197Z,32.94
2022-08-22T11:31:07.158Z,32.18
2022-08-22T11:33:46.377Z,31.31
2022-08-22T11:36:36.891Z,30.72
2022-08-22T11:39:25.562Z,30.69
2022-08-22T11:42:04.731Z,32.67
2022-08-22T11:44:50.437Z,32.29
2022-08-22T11:47:26.570Z,32.23
2022-08-22T11:49:54.606Z,31.95
2022-08-22T11:52:26.583Z,32.18
2022-08-22T11:55:23.226Z,32.70
2022-08-22T11:57:54.953Z,32.36
2022-08-22T12:00:58.619Z,33.81
2022-08-22T12:03:55.696Z,32.71
2022-08-22T12:06:42.905Z,33.37
2022-08-22T12:09:38.003Z,34.41
2022-08-22T12:12:10.377Z,34.31
2022-08-22T12:14:57.315Z,34.73
2022-08-22T12:17:54.954Z,34.46
2022-08-22T12:20:45.589Z,33.68
2022-08-22T12:23:43.220Z,34.47
2022-08-22T12:26:44.207Z,35.86
2022-08-22T12:29:55.048Z,34.67
2022-08-22T12:32:49.044Z,34.39
2022-08-22T12:35:39.035Z,33.52
2022-08-22T12:38:38.044Z,32.88
2022-08-22T12:41:07.893Z,32.37
2022-08-22T12:43:43.437Z,33.26
2022-08-22T12:46:28.858Z,32.66
2022-08-22T12:49:39.995Z,33.13
2022-08-22T12:52:20.143Z,33.71
2022-08-22T12:55:25.045Z,34.36
2022-08-22T12:58:17.905Z,32.84
2022-08-22T13:00:47.126Z,32.56
2022-08-22T13:03:37.014Z,32.17
2022-08-22T13:06:25.644Z,32.13
2022-08-22T13:08:53.713Z,31.19
2022-08-22T13:11:23.312Z,31.38
2022-08-22T13:14:00.277Z,31.69
2022-08-22T13:16:41.299Z,31.91
2022-08-22T13:19:26.985Z,33.22
2022-08-22T13:22:03.404Z,33.54
2022-08-22T13:24:54.773Z,35.88
2022-08-22T13:27:29.842Z,35.10
2022-08-22T13:30:04.257Z,35.74
2022-08-22T13:32:49.882Z,34.13
2022-08-22T13:35:44.573Z,33.63
2022-08-22T13:38:26.209Z,33.68
2022-08-22T13:40:55.278Z,33.87
2022-08-22T13:43:28.062Z,35.07
2022-08-22T13:46:01.951Z,34.09
2022-08-22T13:48:49.676Z,32.42
2022-08-22T13:51:41.058Z,32.49
2022-08-22T13:54:59.772Z,32.99
2022-08-22T13:57:51.945Z,33.57
2022-08-22T14:00:25.354Z,34.33
2022-08-22T14:03:17.991Z,32.60
2022-08-22T14:05:49.395Z,31.31
2022-08-22T14:08:22.603Z,30.95
2022-08-22T14:11:06.912Z,31.82
2022-08-22T14:13:40.982Z,31.27
2022-08-22T14:16:20.903Z,31.89
2022-08-22T14:18:52.973Z,29.88
2022-08-22T14:21:26.982Z,31.55
2022-08-22T14:23:58.950Z,29.71
2022-08-22T14:26:33.186Z,29.27
2022-08-22T14:29:12.686Z,28.99
2022-08-22T14:31:39.722Z,29.17
2022-08-22T14:34:09.666Z,29.51
2022-08-22T14:36:48.710Z,29.52
2022-08-22T14:39:50.457Z,29.54
2022-08-22T14:42:23.195Z,30.87
2022-08-22T14:45:01.926Z,30.50
2022-08-22T14:48:14.121Z,30.86
2022-08-22T14:50:49.073Z,30.83
2022-08-22T14:53:19.296Z,29.64
2022-08-22T14:56:02.441Z,28.55
2022-08-22T14:58:32.481Z,29.58
2022-08-22T15:01:14.186Z,30.27
2022-08-22T15:03:42.897Z,28.41
2022-08-22T15:06:36.268Z,28.18
2022-08-22T15:09:33.025Z,29.68
2022-08-22T15:12:01.605Z,29.91
2022-08-22T15:14:35.854Z,28.74
2022-08-22T15:17:06.374Z,29.20
2022-08-22T15:19:32.670Z,28.25
2022-08-22T15:22:21.219Z,29.70
2022-08-22T15:25:04.818Z,29.52
2022-08-22T15:27:34.406Z,29.43
2022-08-22T15:30:07.613Z,29.74
2022-08-22T15:32:47.031Z,29.71
2022-08-22T15:35:26.645Z,29.39
2022-08-22T15:38:02.566Z,29.70
2022-08-22T15:40:40.540Z,28.75
2022-08-22T15:43:28.907Z,29.86
2022-08-22T15:46:29.221Z,29.60
2022-08-22T15:49:05.497Z,31.01
2022-08-22T15:51:42.450Z,31.90
2022-08-22T15:54:25.289Z,30.46
2022-08-22T15:56:51.885Z,30.08
2022-08-22T15:59:48.220Z,30.01
2022-08-22T16:02:38.869Z,29.80
2022-08-22T16:05:11.377Z,29.73
2022-08-22T16:07:43.279Z,29.83
2022-08-22T16:10:29.740Z,30.19
2022-08-22T16:13:20.851Z,29.74
2022-08-22T16:15:47.151Z,30.13
2022-08-22T16:18:35.243Z,30.73
2022-08-22T16:21:04.285Z,30.92
2022-08-22T16:23:48.671Z,31.27
2022-08-22T16:26:18.846Z,31.57
2022-08-22T16:29:03.083Z,32.10
2022-08-22T16:31:32.230Z,32.40
2022-08-22T16:34:39.373Z,32.52
2022-08-22T16:37:08.825Z,33.21
2022-08-22T16:40:00.188Z,33.88
2022-08-22T16:42:46.231Z,34.35
2022-08-22T16:45:34.482Z,34.97
2022-08-22T16:48:16.212Z,36.16
2022-08-22T16:50:42.912Z,36.67
2022-08-22T16:53:35.206Z,37.91
2022-08-22T16:56:17.286Z,38.77
2022-08-22T16:59:19.704Z,39.70
2022-08-22T17:02:06.210Z,42.24
2022-08-22T17:05:06.595Z,41.07
2022-08-22T17:07:43.375Z,42.06
2022-08-22T17:10:24.951Z,42.46
2022-08-22T17:13:06.490Z,40.75
2022-08-22T17:16:02.741Z,39.91
2022-08-22T17:19:05.575Z,39.53
2022-08-22T17:21:54.184Z,38.60
2022-08-22T17:24:59.387Z,38.84
2022-08-22T17:27:33.158Z,38.84
2022-08-22T17:30:07.974Z,46.78
2022-08-22T17:32:40.349Z,48.29
2022-08-22T17:35:46.829Z,48.13
2022-08-22T17:38:25.286Z,48.60
2022-08-22T17:41:01.748Z,48.25
2022-08-22T17:44:03.341Z,47.75
2022-08-22T17:46:43.894Z,48.15
2022-08-22T17:49:47.964Z,48.30
2022-08-22T17:52:42.387Z,49.04
2022-08-22T17:55:23.011Z,50.11
2022-08-22T17:58:00.946Z,50.89
2022-08-22T18:00:35.521Z,51.31
2022-08-22T18:03:01.823Z,52.09
2022-08-22T18:05:33.947Z,52.07
2022-08-22T18:08:37.551Z,52.68
2022-08-22T18:11:08.383Z,52.51
2022-08-22T18:13:44.714Z,52.35
2022-08-22T18:16:24.438Z,53.01
2022-08-22T18:19:05.184Z,53.36
2022-08-22T18:21:41.324Z,53.21
2022-08-22T18:24:10.746Z,53.86
2022-08-22T18:27:02.800Z,54.28
2022-08-22T18:29:43.243Z,54.77
2022-08-22T18:32:30.842Z,55.46
2022-08-22T18:34:59.753Z,55.02
2022-08-22T18:37:31.883Z,55.05
2022-08-22T18:40:22.086Z,55.18
2022-08-22T18:43:27.102Z,54.64
2022-08-22T18:45:58.178Z,54.58
2022-08-22T18:48:59.238Z,54.03
2022-08-22T18:51:34.185Z,54.36
2022-08-22T18:54:04.422Z,53.96
2022-08-22T18:56:42.900Z,53.91
2022-08-22T18:59:31.465Z,53.90
2022-08-22T19:02:16.550Z,54.74
2022-08-22T19:05:01.194Z,54.94
2022-08-22T19:08:09.086Z,54.54
2022-08-22T19:10:53.090Z,54.06
2022-08-22T19:13:38.447Z,53.67
2022-08-22T19:16:35.501Z,54.04
2022-08-22T19:19:17.774Z,53.69
2022-08-22T19:22:23.067Z,53.87
2022-08-22T19:25:04.775Z,53.39
2022-08-22T19:27:40.832Z,53.38
2022-08-22T19:30:41.425Z,52.85
2022-08-22T19:33:27.649Z,53.35
2022-08-22T19:36:27.850Z,53.35
2022-08-22T19:38:58.848Z,54.00
2022-08-22T19:41:41.019Z,55.49
2022-08-22T19:44:17.365Z,56.20
2022-08-22T19:46:47.011Z,57.77
2022-08-22T19:49:31.190Z,59.17
2022-08-22T19:52:10.484Z,59.65
2022-08-22T19:54:48.234Z,60.72
2022-08-22T19:57:27.424Z,60.54
2022-08-22T20:00:08.459Z,60.31
2022-08-22T20:03:06.688Z,60.24
2022-08-22T20:05:56.570Z,60.69
2022-08-22T20:08:50.497Z,60.48
2022-08-22T20:11:41.175Z,60.72
2022-08-22T20:14:16.297Z,61.03
2022-08-22T20:17:07.411Z,60.87
2022-08-22T20:22:49.195Z,61.17
2022-08-22T20:25:41.810Z,60.52
2022-08-22T20:28:27.340Z,60.65
2022-08-22T20:30:58.466Z,60.90
2022-08-22T20:33:33.085Z,61.01
2022-08-22T20:36:03.688Z,60.60
2022-08-22T20:38:37.299Z,61.02
2022-08-22T20:41:25.840Z,61.83
2022-08-22T20:44:16.610Z,60.85
2022-08-22T20:46:56.713Z,59.77
2022-08-22T20:49:31.210Z,58.77
2022-08-22T20:52:02.929Z,58.42
2022-08-22T20:54:32.659Z,57.98
2022-08-22T20:57:11.331Z,57.76
2022-08-22T20:59:41.265Z,58.03
2022-08-22T21:02:26.045Z,57.84
2022-08-22T21:05:08.058Z,57.33
2022-08-22T21:07:43.495Z,56.58
2022-08-22T21:10:27.129Z,55.81
2022-08-22T21:13:09.314Z,53.57
2022-08-22T21:15:47.356Z,52.60
2022-08-22T21:18:34.213Z,52.55
2022-08-22T21:21:17.788Z,52.58
2022-08-22T21:23:50.147Z,51.69
2022-08-22T21:26:28.899Z,52.22
2022-08-22T21:28:57.116Z,51.77
2022-08-22T21:31:26.807Z,52.33
2022-08-22T21:33:55.250Z,51.75
2022-08-22T21:36:26.631Z,52.36
2022-08-22T21:38:59.793Z,52.57
2022-08-22T21:41:47.702Z,52.84
2022-08-22T21:44:40.225Z,53.66
2022-08-22T21:47:30.939Z,53.63
2022-08-22T21:50:02.146Z,54.44
2022-08-22T21:52:30.903Z,54.92
2022-08-22T21:55:13.714Z,55.76
2022-08-22T21:57:40.091Z,55.98
2022-08-22T22:00:30.077Z,56.55
2022-08-22T22:02:59.875Z,55.96
2022-08-22T22:05:29.263Z,55.67
2022-08-22T22:07:55.622Z,54.98
2022-08-22T22:10:22.105Z,54.79
2022-08-22T22:12:49.391Z,54.09
2022-08-22T22:15:19.112Z,53.74
2022-08-22T22:17:45.608Z,53.91
2022-08-22T22:20:13.179Z,54.00
2022-08-22T22:22:46.276Z,53.82
2022-08-22T22:25:40.382Z,53.43
2022-08-22T22:28:08.937Z,53.11
2022-08-22T22:30:35.792Z,53.44
2022-08-22T22:33:02.169Z,54.05
2022-08-22T22:35:28.605Z,54.04
2022-08-22T22:37:55.403Z,54.33
2022-08-22T22:40:22.062Z,54.13
2022-08-22T22:42:48.442Z,54.44
2022-08-22T22:45:14.771Z,54.23
2022-08-22T22:47:41.203Z,54.47
2022-08-22T22:50:08.292Z,54.65
2022-08-22T22:52:35.117Z,54.24
2022-08-22T22:55:08.295Z,54.29
2022-08-22T22:57:42.456Z,53.64
2022-08-22T23:00:10.141Z,53.39
2022-08-22T23:02:36.515Z,53.36
2022-08-22T23:05:02.889Z,53.16
2022-08-22T23:07:29.236Z,53.00
2022-08-22T23:10:01.308Z,53.56
2022-08-22T23:12:28.047Z,53.22
2022-08-22T23:14:54.430Z,52.87
2022-08-22T23:17:20.783Z,52.41
2022-08-22T23:19:47.639Z,52.44
2022-08-22T23:22:14.244Z,52.42
2022-08-22T23:24:40.611Z,52.22
2022-08-22T23:27:08.810Z,52.23
2022-08-22T23:29:36.444Z,52.18
2022-08-22T23:32:04.443Z,52.79
2022-08-22T23:34:51.033Z,52.85
2022-08-22T23:37:20.520Z,52.69
2022-08-22T23:39:47.680Z,52.79
2022-08-22T23:42:14.986Z,52.84
2022-08-22T23:44:43.582Z,52.64
2022-08-22T23:47:10.560Z,52.49
2022-08-22T23:49:38.323Z,53.22
2022-08-22T23:52:06.032Z,52.79
2022-08-22T23:54:33.021Z,52.65
2022-08-22T23:57:01.482Z,52.67
2022-08-22T23:59:31.969Z,52.58
